sensor_id;sensor_type;location;lat;lon;timestamp;P1;durP1;ratioP1;P2;durP2;ratioP2
37857;SDS011;23695;55.868;37.472;2022-08-11T00:00:33;72.05;;;33.13;;
37857;SDS011;23695;55.868;37.472;2022-08-11T00:03:05;52.92;;;24.95;;
37857;SDS011;23695;55.868;37.472;2022-08-11T00:05:42;51.45;;;25.27;;
37857;SDS011;23695;55.868;37.472;2022-08-11T00:08:10;52.10;;;22.73;;
37857;SDS011;23695;55.868;37.472;2022-08-11T00:10:57;44.38;;;22.02;;
37857;SDS011;23695;55.868;37.472;2022-08-11T00:13:33;37.28;;;16.15;;
37857;SDS011;23695;55.868;37.472;2022-08-11T00:16:01;27.67;;;14.57;;
37857;SDS011;23695;55.868;37.472;2022-08-11T00:18:30;23.13;;;10.70;;
37857;SDS011;23695;55.868;37.472;2022-08-11T00:21:05;18.20;;;10.07;;
37857;SDS011;23695;55.868;37.472;2022-08-11T00:23:32;20.88;;;10.32;;
37857;SDS011;23695;55.868;37.472;2022-08-11T00:25:58;21.48;;;10.30;;
37857;SDS011;23695;55.868;37.472;2022-08-11T00:28:30;16.38;;;9.88;;
37857;SDS011;23695;55.868;37.472;2022-08-11T00:30:58;14.57;;;7.85;;
37857;SDS011;23695;55.868;37.472;2022-08-11T00:33:46;15.60;;;6.22;;
37857;SDS011;23695;55.868;37.472;2022-08-11T00:36:15;10.27;;;5.57;;
37857;SDS011;23695;55.868;37.472;2022-08-11T00:38:44;7.78;;;4.40;;
37857;SDS011;23695;55.868;37.472;2022-08-11T00:51:49;5.50;;;3.30;;
37857;SDS011;23695;55.868;37.472;2022-08-11T00:58:28;7.65;;;3.78;;
37857;SDS011;23695;55.868;37.472;2022-08-11T01:03:42;7.45;;;3.60;;
37857;SDS011;23695;55.868;37.472;2022-08-11T01:35:33;75.07;;;50.00;;
37857;SDS011;23695;55.868;37.472;2022-08-11T02:11:23;20.00;;;11.63;;
37857;SDS011;23695;55.868;37.472;2022-08-11T02:19:08;19.70;;;11.68;;
37857;SDS011;23695;55.868;37.472;2022-08-11T02:22:12;19.15;;;11.43;;
37857;SDS011;23695;55.868;37.472;2022-08-11T02:25:05;20.60;;;12.02;;
37857;SDS011;23695;55.868;37.472;2022-08-11T02:27:35;23.52;;;13.55;;
37857;SDS011;23695;55.868;37.472;2022-08-11T02:30:07;25.83;;;15.38;;
37857;SDS011;23695;55.868;37.472;2022-08-11T02:38:28;13.60;;;6.63;;
37857;SDS011;23695;55.868;37.472;2022-08-11T02:41:30;10.00;;;5.65;;
37857;SDS011;23695;55.868;37.472;2022-08-11T02:44:28;7.90;;;4.80;;
37857;SDS011;23695;55.868;37.472;2022-08-11T02:47:17;8.70;;;5.82;;
37857;SDS011;23695;55.868;37.472;2022-08-11T02:50:18;9.73;;;4.97;;
37857;SDS011;23695;55.868;37.472;2022-08-11T02:53:06;9.77;;;4.95;;
37857;SDS011;23695;55.868;37.472;2022-08-11T02:58:35;6.43;;;4.57;;
37857;SDS011;23695;55.868;37.472;2022-08-11T03:01:31;7.63;;;4.13;;
37857;SDS011;23695;55.868;37.472;2022-08-11T03:04:13;8.90;;;4.05;;
37857;SDS011;23695;55.868;37.472;2022-08-11T03:07:20;11.82;;;5.43;;
37857;SDS011;23695;55.868;37.472;2022-08-11T03:12:54;7.13;;;3.70;;
37857;SDS011;23695;55.868;37.472;2022-08-11T03:18:53;9.93;;;3.70;;
37857;SDS011;23695;55.868;37.472;2022-08-11T03:22:04;11.98;;;3.50;;
37857;SDS011;23695;55.868;37.472;2022-08-11T03:28:03;6.53;;;3.88;;
37857;SDS011;23695;55.868;37.472;2022-08-11T03:30:42;7.68;;;4.90;;
37857;SDS011;23695;55.868;37.472;2022-08-11T03:33:22;15.57;;;4.72;;
37857;SDS011;23695;55.868;37.472;2022-08-11T03:39:56;12.38;;;4.45;;
37857;SDS011;23695;55.868;37.472;2022-08-11T03:44:41;15.65;;;4.88;;
37857;SDS011;23695;55.868;37.472;2022-08-11T04:10:26;11.25;;;4.93;;
37857;SDS011;23695;55.868;37.472;2022-08-11T04:25:08;21.95;;;7.90;;
37857;SDS011;23695;55.868;37.472;2022-08-11T04:33:58;12.02;;;5.03;;
37857;SDS011;23695;55.868;37.472;2022-08-11T04:42:52;14.77;;;3.55;;
37857;SDS011;23695;55.868;37.472;2022-08-11T04:55:06;13.18;;;3.83;;
37857;SDS011;23695;55.868;37.472;2022-08-11T05:13:10;14.05;;;4.60;;
37857;SDS011;23695;55.868;37.472;2022-08-11T05:16:08;6.63;;;2.90;;
37857;SDS011;23695;55.868;37.472;2022-08-11T05:18:54;10.52;;;2.40;;
37857;SDS011;23695;55.868;37.472;2022-08-11T05:21:41;18.88;;;3.55;;
37857;SDS011;23695;55.868;37.472;2022-08-11T05:24:30;14.43;;;2.80;;
37857;SDS011;23695;55.868;37.472;2022-08-11T05:27:18;9.60;;;2.80;;
37857;SDS011;23695;55.868;37.472;2022-08-11T05:30:06;10.13;;;2.70;;
37857;SDS011;23695;55.868;37.472;2022-08-11T05:32:55;8.30;;;2.35;;
37857;SDS011;23695;55.868;37.472;2022-08-11T05:35:47;17.30;;;3.33;;
37857;SDS011;23695;55.868;37.472;2022-08-11T05:38:23;12.75;;;2.90;;
37857;SDS011;23695;55.868;37.472;2022-08-11T05:41:10;9.93;;;3.35;;
37857;SDS011;23695;55.868;37.472;2022-08-11T05:43:59;15.52;;;3.10;;
37857;SDS011;23695;55.868;37.472;2022-08-11T05:46:46;9.18;;;3.20;;
37857;SDS011;23695;55.868;37.472;2022-08-11T05:49:31;11.95;;;3.70;;
37857;SDS011;23695;55.868;37.472;2022-08-11T05:52:20;13.30;;;2.60;;
37857;SDS011;23695;55.868;37.472;2022-08-11T05:55:08;8.45;;;3.03;;
37857;SDS011;23695;55.868;37.472;2022-08-11T05:57:56;7.30;;;2.58;;
37857;SDS011;23695;55.868;37.472;2022-08-11T06:00:26;11.23;;;2.33;;
37857;SDS011;23695;55.868;37.472;2022-08-11T06:02:54;16.95;;;2.90;;
37857;SDS011;23695;55.868;37.472;2022-08-11T06:05:33;9.27;;;2.40;;
37857;SDS011;23695;55.868;37.472;2022-08-11T06:08:00;14.00;;;2.08;;
37857;SDS011;23695;55.868;37.472;2022-08-11T06:10:37;15.88;;;2.47;;
37857;SDS011;23695;55.868;37.472;2022-08-11T06:13:06;13.57;;;1.77;;
37857;SDS011;23695;55.868;37.472;2022-08-11T06:15:33;7.55;;;1.52;;
37857;SDS011;23695;55.868;37.472;2022-08-11T06:18:11;9.43;;;1.42;;
37857;SDS011;23695;55.868;37.472;2022-08-11T06:20:45;5.95;;;1.30;;
37857;SDS011;23695;55.868;37.472;2022-08-11T06:23:15;4.70;;;1.20;;
37857;SDS011;23695;55.868;37.472;2022-08-11T06:25:43;7.57;;;1.00;;
37857;SDS011;23695;55.868;37.472;2022-08-11T06:28:10;7.35;;;1.10;;
37857;SDS011;23695;55.868;37.472;2022-08-11T06:30:39;3.45;;;0.93;;
37857;SDS011;23695;55.868;37.472;2022-08-11T06:33:10;6.78;;;0.93;;
37857;SDS011;23695;55.868;37.472;2022-08-11T06:42:00;3.88;;;1.10;;
37857;SDS011;23695;55.868;37.472;2022-08-11T06:44:42;7.45;;;1.05;;
37857;SDS011;23695;55.868;37.472;2022-08-11T06:47:12;4.78;;;1.08;;
37857;SDS011;23695;55.868;37.472;2022-08-11T06:49:45;2.08;;;0.80;;
37857;SDS011;23695;55.868;37.472;2022-08-11T06:52:32;7.50;;;1.10;;
37857;SDS011;23695;55.868;37.472;2022-08-11T06:55:10;6.43;;;0.95;;
37857;SDS011;23695;55.868;37.472;2022-08-11T06:57:39;5.53;;;1.00;;
37857;SDS011;23695;55.868;37.472;2022-08-11T07:00:29;4.43;;;0.82;;
37857;SDS011;23695;55.868;37.472;2022-08-11T07:03:09;2.60;;;0.70;;
37857;SDS011;23695;55.868;37.472;2022-08-11T07:05:44;5.03;;;0.50;;
37857;SDS011;23695;55.868;37.472;2022-08-11T07:08:39;6.43;;;0.65;;
37857;SDS011;23695;55.868;37.472;2022-08-11T07:14:47;3.08;;;0.75;;
37857;SDS011;23695;55.868;37.472;2022-08-11T07:17:44;4.00;;;0.77;;
37857;SDS011;23695;55.868;37.472;2022-08-11T07:20:34;1.58;;;0.75;;
37857;SDS011;23695;55.868;37.472;2022-08-11T07:23:21;2.83;;;0.82;;
37857;SDS011;23695;55.868;37.472;2022-08-11T07:26:06;2.30;;;0.77;;
37857;SDS011;23695;55.868;37.472;2022-08-11T07:28:51;1.52;;;0.60;;
37857;SDS011;23695;55.868;37.472;2022-08-11T07:31:25;1.48;;;0.60;;
37857;SDS011;23695;55.868;37.472;2022-08-11T07:34:16;4.68;;;0.80;;
37857;SDS011;23695;55.868;37.472;2022-08-11T07:36:51;1.65;;;0.70;;
37857;SDS011;23695;55.868;37.472;2022-08-11T07:39:20;3.95;;;0.80;;
37857;SDS011;23695;55.868;37.472;2022-08-11T07:41:49;2.33;;;0.70;;
37857;SDS011;23695;55.868;37.472;2022-08-11T07:44:17;4.65;;;0.80;;
37857;SDS011;23695;55.868;37.472;2022-08-11T07:46:44;15.25;;;1.58;;
37857;SDS011;23695;55.868;37.472;2022-08-11T07:49:31;12.32;;;1.05;;
37857;SDS011;23695;55.868;37.472;2022-08-11T07:52:19;3.72;;;0.80;;
37857;SDS011;23695;55.868;37.472;2022-08-11T07:55:02;13.00;;;1.17;;
37857;SDS011;23695;55.868;37.472;2022-08-11T07:57:36;5.03;;;1.00;;
37857;SDS011;23695;55.868;37.472;2022-08-11T08:00:21;4.30;;;1.00;;
37857;SDS011;23695;55.868;37.472;2022-08-11T08:03:06;4.05;;;0.95;;
37857;SDS011;23695;55.868;37.472;2022-08-11T08:05:52;7.25;;;1.00;;
37857;SDS011;23695;55.868;37.472;2022-08-11T08:08:36;3.80;;;1.00;;
37857;SDS011;23695;55.868;37.472;2022-08-11T08:11:24;4.40;;;1.10;;
37857;SDS011;23695;55.868;37.472;2022-08-11T08:14:09;5.97;;;1.10;;
37857;SDS011;23695;55.868;37.472;2022-08-11T08:16:54;5.22;;;0.90;;
37857;SDS011;23695;55.868;37.472;2022-08-11T08:19:40;9.23;;;1.10;;
37857;SDS011;23695;55.868;37.472;2022-08-11T08:22:09;8.50;;;1.25;;
37857;SDS011;23695;55.868;37.472;2022-08-11T08:24:37;6.85;;;1.20;;
37857;SDS011;23695;55.868;37.472;2022-08-11T08:27:06;8.98;;;1.23;;
37857;SDS011;23695;55.868;37.472;2022-08-11T08:29:36;3.40;;;1.00;;
37857;SDS011;23695;55.868;37.472;2022-08-11T08:32:21;4.32;;;1.00;;
37857;SDS011;23695;55.868;37.472;2022-08-11T08:34:51;3.50;;;1.38;;
37857;SDS011;23695;55.868;37.472;2022-08-11T08:37:20;3.08;;;1.00;;
37857;SDS011;23695;55.868;37.472;2022-08-11T08:39:51;3.67;;;1.45;;
37857;SDS011;23695;55.868;37.472;2022-08-11T08:42:25;3.05;;;1.15;;
37857;SDS011;23695;55.868;37.472;2022-08-11T08:45:04;4.22;;;1.00;;
37857;SDS011;23695;55.868;37.472;2022-08-11T08:47:36;6.68;;;1.20;;
37857;SDS011;23695;55.868;37.472;2022-08-11T08:50:07;3.90;;;1.50;;
37857;SDS011;23695;55.868;37.472;2022-08-11T08:52:36;3.65;;;1.15;;
37857;SDS011;23695;55.868;37.472;2022-08-11T08:55:07;2.72;;;1.40;;
37857;SDS011;23695;55.868;37.472;2022-08-11T09:00:04;8.25;;;1.38;;
37857;SDS011;23695;55.868;37.472;2022-08-11T09:02:31;5.50;;;1.50;;
37857;SDS011;23695;55.868;37.472;2022-08-11T09:04:57;4.82;;;1.60;;
37857;SDS011;23695;55.868;37.472;2022-08-11T09:07:25;3.05;;;1.10;;
37857;SDS011;23695;55.868;37.472;2022-08-11T09:09:53;7.50;;;1.17;;
37857;SDS011;23695;55.868;37.472;2022-08-11T09:12:25;4.65;;;1.30;;
37857;SDS011;23695;55.868;37.472;2022-08-11T09:20:04;7.93;;;1.35;;
37857;SDS011;23695;55.868;37.472;2022-08-11T09:22:34;4.78;;;1.58;;
37857;SDS011;23695;55.868;37.472;2022-08-11T09:25:21;5.90;;;1.33;;
37857;SDS011;23695;55.868;37.472;2022-08-11T09:28:14;7.07;;;1.45;;
37857;SDS011;23695;55.868;37.472;2022-08-11T09:30:48;3.25;;;1.30;;
37857;SDS011;23695;55.868;37.472;2022-08-11T09:33:19;6.97;;;1.38;;
37857;SDS011;23695;55.868;37.472;2022-08-11T09:35:47;4.80;;;1.63;;
37857;SDS011;23695;55.868;37.472;2022-08-11T09:38:16;4.03;;;1.40;;
37857;SDS011;23695;55.868;37.472;2022-08-11T09:41:02;3.47;;;1.55;;
37857;SDS011;23695;55.868;37.472;2022-08-11T09:43:29;5.55;;;1.40;;
37857;SDS011;23695;55.868;37.472;2022-08-11T09:46:15;5.35;;;1.30;;
37857;SDS011;23695;55.868;37.472;2022-08-11T09:48:47;6.97;;;1.80;;
37857;SDS011;23695;55.868;37.472;2022-08-11T09:51:13;7.53;;;1.40;;
37857;SDS011;23695;55.868;37.472;2022-08-11T09:53:42;2.85;;;1.10;;
37857;SDS011;23695;55.868;37.472;2022-08-11T09:56:18;4.95;;;1.42;;
37857;SDS011;23695;55.868;37.472;2022-08-11T09:59:05;8.45;;;1.45;;
37857;SDS011;23695;55.868;37.472;2022-08-11T10:01:34;3.40;;;1.50;;
37857;SDS011;23695;55.868;37.472;2022-08-11T10:04:11;4.90;;;1.42;;
37857;SDS011;23695;55.868;37.472;2022-08-11T10:06:43;4.13;;;1.20;;
37857;SDS011;23695;55.868;37.472;2022-08-11T10:09:51;4.63;;;1.30;;
37857;SDS011;23695;55.868;37.472;2022-08-11T10:12:31;5.20;;;1.60;;
37857;SDS011;23695;55.868;37.472;2022-08-11T10:15:06;4.05;;;1.40;;
37857;SDS011;23695;55.868;37.472;2022-08-11T10:17:53;4.75;;;1.20;;
37857;SDS011;23695;55.868;37.472;2022-08-11T10:20:41;2.58;;;1.50;;
37857;SDS011;23695;55.868;37.472;2022-08-11T10:23:09;5.28;;;1.27;;
37857;SDS011;23695;55.868;37.472;2022-08-11T10:25:56;2.80;;;1.50;;
37857;SDS011;23695;55.868;37.472;2022-08-11T10:28:41;6.53;;;1.60;;
37857;SDS011;23695;55.868;37.472;2022-08-11T10:31:07;5.80;;;1.10;;
37857;SDS011;23695;55.868;37.472;2022-08-11T10:33:52;2.47;;;1.20;;
37857;SDS011;23695;55.868;37.472;2022-08-11T10:39:07;2.85;;;1.10;;
37857;SDS011;23695;55.868;37.472;2022-08-11T10:41:35;4.25;;;1.30;;
37857;SDS011;23695;55.868;37.472;2022-08-11T10:44:21;4.18;;;1.30;;
37857;SDS011;23695;55.868;37.472;2022-08-11T10:46:47;2.97;;;1.48;;
37857;SDS011;23695;55.868;37.472;2022-08-11T10:49:32;5.43;;;1.40;;
37857;SDS011;23695;55.868;37.472;2022-08-11T10:51:59;5.93;;;1.60;;
37857;SDS011;23695;55.868;37.472;2022-08-11T10:54:45;3.80;;;1.20;;
37857;SDS011;23695;55.868;37.472;2022-08-11T10:57:29;5.90;;;1.52;;
37857;SDS011;23695;55.868;37.472;2022-08-11T11:00:14;3.67;;;1.25;;
37857;SDS011;23695;55.868;37.472;2022-08-11T11:02:43;3.47;;;1.15;;
37857;SDS011;23695;55.868;37.472;2022-08-11T11:05:12;3.03;;;1.45;;
37857;SDS011;23695;55.868;37.472;2022-08-11T11:10:53;2.55;;;1.08;;
37857;SDS011;23695;55.868;37.472;2022-08-11T11:13:21;4.68;;;1.35;;
37857;SDS011;23695;55.868;37.472;2022-08-11T11:16:07;6.05;;;1.40;;
37857;SDS011;23695;55.868;37.472;2022-08-11T11:18:53;4.00;;;1.05;;
37857;SDS011;23695;55.868;37.472;2022-08-11T11:21:21;5.00;;;1.17;;
37857;SDS011;23695;55.868;37.472;2022-08-11T11:23:55;5.55;;;1.40;;
37857;SDS011;23695;55.868;37.472;2022-08-11T11:32:16;5.90;;;1.25;;
37857;SDS011;23695;55.868;37.472;2022-08-11T11:37:45;4.22;;;1.25;;
37857;SDS011;23695;55.868;37.472;2022-08-11T11:40:17;4.05;;;1.58;;
37857;SDS011;23695;55.868;37.472;2022-08-11T11:42:45;2.60;;;1.20;;
37857;SDS011;23695;55.868;37.472;2022-08-11T11:47:49;5.40;;;1.50;;
37857;SDS011;23695;55.868;37.472;2022-08-11T11:50:26;4.15;;;1.48;;
37857;SDS011;23695;55.868;37.472;2022-08-11T11:52:55;2.50;;;1.20;;
37857;SDS011;23695;55.868;37.472;2022-08-11T11:55:24;4.03;;;2.00;;
37857;SDS011;23695;55.868;37.472;2022-08-11T11:57:52;6.38;;;1.35;;
37857;SDS011;23695;55.868;37.472;2022-08-11T12:00:38;4.97;;;1.58;;
37857;SDS011;23695;55.868;37.472;2022-08-11T12:03:23;2.67;;;1.40;;
37857;SDS011;23695;55.868;37.472;2022-08-11T12:05:51;4.07;;;1.48;;
37857;SDS011;23695;55.868;37.472;2022-08-11T12:08:17;3.75;;;1.25;;
37857;SDS011;23695;55.868;37.472;2022-08-11T12:10:46;7.18;;;1.50;;
37857;SDS011;23695;55.868;37.472;2022-08-11T12:13:41;6.97;;;4.05;;
37857;SDS011;23695;55.868;37.472;2022-08-11T12:16:09;6.88;;;2.00;;
37857;SDS011;23695;55.868;37.472;2022-08-11T12:18:37;3.80;;;1.50;;
37857;SDS011;23695;55.868;37.472;2022-08-11T12:21:06;4.43;;;1.60;;
37857;SDS011;23695;55.868;37.472;2022-08-11T12:23:34;6.60;;;1.42;;
37857;SDS011;23695;55.868;37.472;2022-08-11T12:26:20;5.43;;;1.58;;
37857;SDS011;23695;55.868;37.472;2022-08-11T12:29:05;5.22;;;1.65;;
37857;SDS011;23695;55.868;37.472;2022-08-11T12:31:34;6.88;;;2.13;;
37857;SDS011;23695;55.868;37.472;2022-08-11T12:34:09;7.30;;;1.83;;
37857;SDS011;23695;55.868;37.472;2022-08-11T12:36:42;10.15;;;2.10;;
37857;SDS011;23695;55.868;37.472;2022-08-11T12:39:12;3.45;;;1.48;;
37857;SDS011;23695;55.868;37.472;2022-08-11T12:41:45;10.95;;;2.35;;
37857;SDS011;23695;55.868;37.472;2022-08-11T12:44:30;4.85;;;1.80;;
37857;SDS011;23695;55.868;37.472;2022-08-11T12:47:16;5.03;;;1.70;;
37857;SDS011;23695;55.868;37.472;2022-08-11T12:49:46;4.80;;;1.70;;
37857;SDS011;23695;55.868;37.472;2022-08-11T12:52:49;5.65;;;1.30;;
37857;SDS011;23695;55.868;37.472;2022-08-11T12:55:19;4.95;;;1.50;;
37857;SDS011;23695;55.868;37.472;2022-08-11T12:58:08;8.85;;;1.42;;
37857;SDS011;23695;55.868;37.472;2022-08-11T13:00:45;5.47;;;1.60;;
37857;SDS011;23695;55.868;37.472;2022-08-11T13:03:31;6.15;;;1.50;;
37857;SDS011;23695;55.868;37.472;2022-08-11T13:06:18;5.80;;;1.80;;
37857;SDS011;23695;55.868;37.472;2022-08-11T13:08:47;2.33;;;1.55;;
37857;SDS011;23695;55.868;37.472;2022-08-11T13:11:14;4.50;;;1.45;;
37857;SDS011;23695;55.868;37.472;2022-08-11T13:14:00;6.15;;;1.48;;
37857;SDS011;23695;55.868;37.472;2022-08-11T13:16:29;6.35;;;1.30;;
37857;SDS011;23695;55.868;37.472;2022-08-11T13:18:57;10.10;;;1.75;;
37857;SDS011;23695;55.868;37.472;2022-08-11T13:21:25;6.68;;;1.88;;
37857;SDS011;23695;55.868;37.472;2022-08-11T13:23:52;11.88;;;2.47;;
37857;SDS011;23695;55.868;37.472;2022-08-11T13:26:23;7.15;;;1.63;;
37857;SDS011;23695;55.868;37.472;2022-08-11T13:28:50;7.07;;;1.50;;
37857;SDS011;23695;55.868;37.472;2022-08-11T13:31:16;4.07;;;1.73;;
37857;SDS011;23695;55.868;37.472;2022-08-11T13:33:49;8.95;;;1.67;;
37857;SDS011;23695;55.868;37.472;2022-08-11T13:36:20;5.72;;;1.98;;
37857;SDS011;23695;55.868;37.472;2022-08-11T13:38:50;2.28;;;1.25;;
37857;SDS011;23695;55.868;37.472;2022-08-11T13:41:19;5.00;;;1.67;;
37857;SDS011;23695;55.868;37.472;2022-08-11T13:44:09;7.05;;;1.70;;
37857;SDS011;23695;55.868;37.472;2022-08-11T13:46:37;8.10;;;2.15;;
37857;SDS011;23695;55.868;37.472;2022-08-11T13:49:04;10.02;;;1.52;;
37857;SDS011;23695;55.868;37.472;2022-08-11T13:51:34;8.00;;;2.03;;
37857;SDS011;23695;55.868;37.472;2022-08-11T13:54:05;10.82;;;1.77;;
37857;SDS011;23695;55.868;37.472;2022-08-11T13:56:32;5.70;;;1.77;;
37857;SDS011;23695;55.868;37.472;2022-08-11T13:59:01;5.78;;;2.00;;
37857;SDS011;23695;55.868;37.472;2022-08-11T14:01:30;11.68;;;1.48;;
37857;SDS011;23695;55.868;37.472;2022-08-11T14:04:02;4.97;;;1.73;;
37857;SDS011;23695;55.868;37.472;2022-08-11T14:06:43;17.73;;;1.95;;
37857;SDS011;23695;55.868;37.472;2022-08-11T14:09:13;6.85;;;1.90;;
37857;SDS011;23695;55.868;37.472;2022-08-11T14:11:40;10.15;;;2.65;;
37857;SDS011;23695;55.868;37.472;2022-08-11T14:14:30;5.80;;;1.92;;
37857;SDS011;23695;55.868;37.472;2022-08-11T14:17:04;5.78;;;1.92;;
37857;SDS011;23695;55.868;37.472;2022-08-11T14:19:38;6.93;;;1.83;;
37857;SDS011;23695;55.868;37.472;2022-08-11T14:22:05;6.25;;;1.85;;
37857;SDS011;23695;55.868;37.472;2022-08-11T14:24:33;4.65;;;1.80;;
37857;SDS011;23695;55.868;37.472;2022-08-11T14:27:03;3.17;;;1.40;;
37857;SDS011;23695;55.868;37.472;2022-08-11T14:29:30;5.53;;;1.52;;
37857;SDS011;23695;55.868;37.472;2022-08-11T14:31:59;5.95;;;1.58;;
37857;SDS011;23695;55.868;37.472;2022-08-11T14:34:28;4.55;;;1.70;;
37857;SDS011;23695;55.868;37.472;2022-08-11T14:36:57;6.90;;;1.70;;
37857;SDS011;23695;55.868;37.472;2022-08-11T14:39:28;3.70;;;1.55;;
37857;SDS011;23695;55.868;37.472;2022-08-11T14:42:01;5.82;;;1.70;;
37857;SDS011;23695;55.868;37.472;2022-08-11T14:44:56;8.13;;;1.60;;
37857;SDS011;23695;55.868;37.472;2022-08-11T14:47:44;4.03;;;1.80;;
37857;SDS011;23695;55.868;37.472;2022-08-11T14:50:20;6.45;;;1.35;;
37857;SDS011;23695;55.868;37.472;2022-08-11T14:52:52;9.85;;;2.25;;
37857;SDS011;23695;55.868;37.472;2022-08-11T14:55:23;7.38;;;1.85;;
37857;SDS011;23695;55.868;37.472;2022-08-11T14:58:10;5.22;;;1.60;;
37857;SDS011;23695;55.868;37.472;2022-08-11T15:00:40;5.28;;;1.63;;
37857;SDS011;23695;55.868;37.472;2022-08-11T15:03:07;6.70;;;1.75;;
37857;SDS011;23695;55.868;37.472;2022-08-11T15:05:46;6.03;;;1.50;;
37857;SDS011;23695;55.868;37.472;2022-08-11T15:08:16;7.20;;;1.73;;
37857;SDS011;23695;55.868;37.472;2022-08-11T15:10:44;5.50;;;1.60;;
37857;SDS011;23695;55.868;37.472;2022-08-11T15:13:11;7.25;;;1.55;;
37857;SDS011;23695;55.868;37.472;2022-08-11T15:15:42;5.43;;;1.50;;
37857;SDS011;23695;55.868;37.472;2022-08-11T15:18:27;3.72;;;1.80;;
37857;SDS011;23695;55.868;37.472;2022-08-11T15:20:54;5.05;;;1.52;;
37857;SDS011;23695;55.868;37.472;2022-08-11T15:23:39;4.82;;;1.70;;
37857;SDS011;23695;55.868;37.472;2022-08-11T15:26:31;6.22;;;1.58;;
37857;SDS011;23695;55.868;37.472;2022-08-11T15:29:22;3.60;;;1.40;;
37857;SDS011;23695;55.868;37.472;2022-08-11T15:32:09;3.65;;;1.92;;
37857;SDS011;23695;55.868;37.472;2022-08-11T15:34:46;5.50;;;1.65;;
37857;SDS011;23695;55.868;37.472;2022-08-11T15:37:35;5.00;;;1.35;;
37857;SDS011;23695;55.868;37.472;2022-08-11T15:40:05;4.55;;;1.55;;
37857;SDS011;23695;55.868;37.472;2022-08-11T15:42:57;3.97;;;1.20;;
37857;SDS011;23695;55.868;37.472;2022-08-11T15:45:48;9.48;;;1.50;;
37857;SDS011;23695;55.868;37.472;2022-08-11T15:48:21;6.78;;;1.58;;
37857;SDS011;23695;55.868;37.472;2022-08-11T15:50:51;3.83;;;1.60;;
37857;SDS011;23695;55.868;37.472;2022-08-11T15:55:53;4.22;;;1.85;;
37857;SDS011;23695;55.868;37.472;2022-08-11T15:58:20;2.83;;;1.48;;
37857;SDS011;23695;55.868;37.472;2022-08-11T16:01:08;3.55;;;1.80;;
37857;SDS011;23695;55.868;37.472;2022-08-11T16:04:06;4.15;;;1.48;;
37857;SDS011;23695;55.868;37.472;2022-08-11T16:09:23;7.45;;;1.70;;
37857;SDS011;23695;55.868;37.472;2022-08-11T16:11:56;6.35;;;1.85;;
37857;SDS011;23695;55.868;37.472;2022-08-11T16:14:26;4.25;;;1.60;;
37857;SDS011;23695;55.868;37.472;2022-08-11T16:17:14;2.97;;;1.70;;
37857;SDS011;23695;55.868;37.472;2022-08-11T16:19:43;2.70;;;1.50;;
37857;SDS011;23695;55.868;37.472;2022-08-11T16:22:13;6.43;;;1.75;;
37857;SDS011;23695;55.868;37.472;2022-08-11T16:24:46;6.20;;;1.70;;
37857;SDS011;23695;55.868;37.472;2022-08-11T16:27:14;4.55;;;1.63;;
37857;SDS011;23695;55.868;37.472;2022-08-11T16:29:44;4.28;;;1.88;;
37857;SDS011;23695;55.868;37.472;2022-08-11T16:32:13;5.60;;;1.65;;
37857;SDS011;23695;55.868;37.472;2022-08-11T16:34:54;2.90;;;1.73;;
37857;SDS011;23695;55.868;37.472;2022-08-11T16:37:43;5.53;;;1.75;;
37857;SDS011;23695;55.868;37.472;2022-08-11T16:40:30;4.70;;;2.22;;
37857;SDS011;23695;55.868;37.472;2022-08-11T16:42:57;7.95;;;2.22;;
37857;SDS011;23695;55.868;37.472;2022-08-11T16:45:42;7.55;;;2.20;;
37857;SDS011;23695;55.868;37.472;2022-08-11T16:48:30;5.38;;;2.22;;
37857;SDS011;23695;55.868;37.472;2022-08-11T16:50:58;11.00;;;1.90;;
37857;SDS011;23695;55.868;37.472;2022-08-11T16:53:26;9.20;;;2.13;;
37857;SDS011;23695;55.868;37.472;2022-08-11T16:55:54;8.95;;;2.53;;
37857;SDS011;23695;55.868;37.472;2022-08-11T16:58:22;6.60;;;2.20;;
37857;SDS011;23695;55.868;37.472;2022-08-11T17:01:07;6.88;;;2.00;;
37857;SDS011;23695;55.868;37.472;2022-08-11T17:03:34;8.05;;;2.42;;
37857;SDS011;23695;55.868;37.472;2022-08-11T17:06:26;11.00;;;3.00;;
37857;SDS011;23695;55.868;37.472;2022-08-11T17:09:10;12.27;;;2.70;;
37857;SDS011;23695;55.868;37.472;2022-08-11T17:11:59;15.25;;;3.05;;
37857;SDS011;23695;55.868;37.472;2022-08-11T17:14:49;9.50;;;3.00;;
37857;SDS011;23695;55.868;37.472;2022-08-11T17:17:23;10.45;;;3.03;;
37857;SDS011;23695;55.868;37.472;2022-08-11T17:19:54;5.90;;;2.63;;
37857;SDS011;23695;55.868;37.472;2022-08-11T17:22:23;9.77;;;2.58;;
37857;SDS011;23695;55.868;37.472;2022-08-11T17:25:11;12.57;;;2.80;;
37857;SDS011;23695;55.868;37.472;2022-08-11T17:27:37;10.93;;;3.20;;
37857;SDS011;23695;55.868;37.472;2022-08-11T17:30:06;11.90;;;3.20;;
37857;SDS011;23695;55.868;37.472;2022-08-11T17:32:37;19.73;;;3.58;;
37857;SDS011;23695;55.868;37.472;2022-08-11T17:35:24;20.85;;;4.15;;
37857;SDS011;23695;55.868;37.472;2022-08-11T17:38:09;17.83;;;3.28;;
37857;SDS011;23695;55.868;37.472;2022-08-11T17:40:46;19.85;;;3.47;;
37857;SDS011;23695;55.868;37.472;2022-08-11T17:43:34;21.55;;;3.38;;
37857;SDS011;23695;55.868;37.472;2022-08-11T17:46:20;13.98;;;3.15;;
37857;SDS011;23695;55.868;37.472;2022-08-11T17:49:06;16.40;;;3.30;;
37857;SDS011;23695;55.868;37.472;2022-08-11T17:51:34;17.25;;;3.45;;
37857;SDS011;23695;55.868;37.472;2022-08-11T17:54:20;12.50;;;3.35;;
37857;SDS011;23695;55.868;37.472;2022-08-11T17:57:06;12.93;;;3.45;;
37857;SDS011;23695;55.868;37.472;2022-08-11T17:59:52;13.30;;;3.25;;
37857;SDS011;23695;55.868;37.472;2022-08-11T18:05:16;10.75;;;2.75;;
37857;SDS011;23695;55.868;37.472;2022-08-11T18:07:44;13.57;;;3.22;;
37857;SDS011;23695;55.868;37.472;2022-08-11T18:10:31;11.70;;;4.05;;
37857;SDS011;23695;55.868;37.472;2022-08-11T18:13:17;11.00;;;3.45;;
37857;SDS011;23695;55.868;37.472;2022-08-11T18:16:05;5.97;;;3.15;;
37857;SDS011;23695;55.868;37.472;2022-08-11T18:18:50;15.82;;;2.78;;
37857;SDS011;23695;55.868;37.472;2022-08-11T18:21:35;12.10;;;3.85;;
37857;SDS011;23695;55.868;37.472;2022-08-11T18:24:22;8.18;;;2.95;;
37857;SDS011;23695;55.868;37.472;2022-08-11T18:27:10;11.57;;;3.08;;
37857;SDS011;23695;55.868;37.472;2022-08-11T18:29:59;8.25;;;3.20;;
37857;SDS011;23695;55.868;37.472;2022-08-11T18:32:46;13.15;;;3.70;;
37857;SDS011;23695;55.868;37.472;2022-08-11T18:35:33;16.17;;;4.55;;
37857;SDS011;23695;55.868;37.472;2022-08-11T18:38:18;15.90;;;4.53;;
37857;SDS011;23695;55.868;37.472;2022-08-11T18:41:06;24.98;;;5.45;;
37857;SDS011;23695;55.868;37.472;2022-08-11T18:43:53;13.25;;;4.22;;
37857;SDS011;23695;55.868;37.472;2022-08-11T18:46:42;12.63;;;3.80;;
37857;SDS011;23695;55.868;37.472;2022-08-11T18:49:31;10.48;;;4.20;;
37857;SDS011;23695;55.868;37.472;2022-08-11T18:52:19;13.00;;;3.83;;
37857;SDS011;23695;55.868;37.472;2022-08-11T18:55:07;14.30;;;3.60;;
37857;SDS011;23695;55.868;37.472;2022-08-11T18:57:54;15.00;;;3.17;;
37857;SDS011;23695;55.868;37.472;2022-08-11T19:00:41;26.75;;;3.90;;
37857;SDS011;23695;55.868;37.472;2022-08-11T19:03:28;17.38;;;4.63;;
37857;SDS011;23695;55.868;37.472;2022-08-11T19:06:15;19.00;;;4.25;;
37857;SDS011;23695;55.868;37.472;2022-08-11T19:09:04;15.02;;;4.57;;
37857;SDS011;23695;55.868;37.472;2022-08-11T19:11:50;12.15;;;3.33;;
37857;SDS011;23695;55.868;37.472;2022-08-11T19:14:36;24.38;;;4.20;;
37857;SDS011;23695;55.868;37.472;2022-08-11T19:17:23;15.57;;;4.25;;